createdAt,value
2023-05-01T00:01:26.020Z,101126.09
2023-05-01T00:03:52.832Z,101134.47
2023-05-01T00:06:19.557Z,101121.78
2023-05-01T00:11:39.949Z,101133.31
2023-05-01T00:14:06.330Z,101133.31
2023-05-01T00:16:32.712Z,101134.88
2023-05-01T00:18:59.048Z,101135.25
2023-05-01T00:21:25.384Z,101123.75
2023-05-01T00:26:35.388Z,101126.91
2023-05-01T00:29:01.732Z,101133.28
2023-05-01T00:31:28.140Z,101130.09
2023-05-01T00:33:54.669Z,101128.88
2023-05-01T00:36:21.040Z,101118.53
2023-05-01T00:38:47.376Z,101130.06
2023-05-01T00:41:14.621Z,101132.84
2023-05-01T00:43:40.975Z,101127.66
2023-05-01T00:46:07.383Z,101130.84
2023-05-01T00:48:33.746Z,101132.41
2023-05-01T00:51:00.089Z,101130.38
2023-05-01T00:53:26.457Z,101127.63
2023-05-01T00:55:52.816Z,101132.78
2023-05-01T00:58:19.134Z,101131.22
2023-05-01T01:00:45.551Z,101131.66
2023-05-01T01:03:12.797Z,101136.41
2023-05-01T01:05:39.127Z,101128.88
2023-05-01T01:08:05.493Z,101135.22
2023-05-01T01:10:31.811Z,101136.78
2023-05-01T01:12:58.151Z,101128.84
2023-05-01T01:15:24.468Z,101132.00
2023-05-01T01:17:50.869Z,101130.38
2023-05-01T01:20:18.084Z,101124.84
2023-05-01T01:22:44.430Z,101129.97
2023-05-01T01:25:10.773Z,101127.59
2023-05-01T01:27:37.115Z,101133.16
2023-05-01T01:30:03.491Z,101134.78
2023-05-01T01:32:29.846Z,101125.63
2023-05-01T01:34:56.179Z,101135.16
2023-05-01T01:37:22.536Z,101127.16
2023-05-01T01:39:48.913Z,101127.56
2023-05-01T01:42:15.268Z,101129.13
2023-05-01T01:44:42.473Z,101131.50
2023-05-01T01:47:09.670Z,101135.84
2023-05-01T01:49:36.027Z,101135.84
2023-05-01T01:52:02.366Z,101133.53
2023-05-01T01:54:28.692Z,101141.78
2023-05-01T01:59:38.763Z,101137.84
2023-05-01T02:02:05.418Z,101139.84
2023-05-01T02:04:31.884Z,101132.28
2023-05-01T02:06:58.178Z,101137.06
2023-05-01T02:09:24.545Z,101138.22
2023-05-01T02:14:34.623Z,101137.44
2023-05-01T02:17:00.969Z,101136.63
2023-05-01T02:19:27.310Z,101135.41
2023-05-01T02:21:53.627Z,101131.84
2023-05-01T02:24:20.832Z,101129.47
2023-05-01T02:29:30.896Z,101140.22
2023-05-01T02:31:57.418Z,101134.28
2023-05-01T02:34:23.851Z,101140.22
2023-05-01T02:36:50.180Z,101142.19
2023-05-01T02:39:16.524Z,101144.56
2023-05-01T02:44:36.832Z,101135.03
2023-05-01T02:47:03.202Z,101138.22
2023-05-01T02:49:29.575Z,101137.41
2023-05-01T02:51:55.933Z,101136.22
2023-05-01T02:54:22.279Z,101134.63
2023-05-01T02:59:32.633Z,101138.56
2023-05-01T03:01:58.959Z,101135.75
2023-05-01T03:04:25.329Z,101134.59
2023-05-01T03:06:51.792Z,101133.78
2023-05-01T03:09:18.237Z,101139.72
2023-05-01T03:14:28.406Z,101140.53
2023-05-01T03:16:54.850Z,101140.91
2023-05-01T03:19:21.236Z,101137.34
2023-05-01T03:21:48.454Z,101144.47
2023-05-01T03:24:14.851Z,101138.91
2023-05-01T03:29:25.207Z,101139.72
2023-05-01T03:31:52.487Z,101143.31
2023-05-01T03:34:18.883Z,101133.78
2023-05-01T03:36:45.235Z,101132.56
2023-05-01T03:39:12.441Z,101134.97
2023-05-01T03:41:38.808Z,101135.34
2023-05-01T03:44:06.049Z,101130.59
2023-05-01T03:46:32.415Z,101136.16
2023-05-01T03:48:58.858Z,101143.75
2023-05-01T03:51:25.232Z,101138.22
2023-05-01T03:53:51.558Z,101136.69
2023-05-01T03:56:17.928Z,101130.75
2023-05-01T03:58:44.247Z,101151.44
2023-05-01T04:01:10.578Z,101139.94
2023-05-01T04:03:36.985Z,101136.31
2023-05-01T04:06:03.385Z,101138.63
2023-05-01T04:08:29.753Z,101143.84
2023-05-01T04:10:56.132Z,101137.94
2023-05-01T04:13:22.510Z,101143.91
2023-05-01T04:15:48.917Z,101143.88
2023-05-01T04:18:15.537Z,101144.28
2023-05-01T04:20:42.102Z,101139.91
2023-05-01T04:23:09.477Z,101136.38
2023-05-01T04:25:35.932Z,101132.41
2023-05-01T04:28:03.182Z,101137.56
2023-05-01T04:30:29.528Z,101140.78
2023-05-01T04:32:57.808Z,101139.16
2023-05-01T04:35:24.249Z,101144.75
2023-05-01T04:37:51.552Z,101144.75
2023-05-01T04:40:17.998Z,101144.34
2023-05-01T04:42:44.558Z,101140.81
2023-05-01T04:47:58.947Z,101140.41
2023-05-01T04:50:26.238Z,101134.06
2023-05-01T04:52:53.488Z,101135.66
2023-05-01T04:55:20.700Z,101140.38
2023-05-01T04:57:47.170Z,101138.84
2023-05-01T05:02:58.368Z,101130.09
2023-05-01T05:05:26.718Z,101133.63
2023-05-01T05:07:53.980Z,101132.44
2023-05-01T05:10:23.157Z,101129.25
2023-05-01T05:12:49.553Z,101133.22
2023-05-01T05:18:00.852Z,101129.69
2023-05-01T05:20:28.158Z,101123.34
2023-05-01T05:22:55.388Z,101130.50
2023-05-01T05:25:23.669Z,101127.75
2023-05-01T05:27:50.909Z,101119.81
2023-05-01T05:33:01.223Z,101118.63
2023-05-01T05:35:27.766Z,101120.63
2023-05-01T05:37:55.022Z,101124.19
2023-05-01T05:40:23.331Z,101121.41
2023-05-01T05:42:52.528Z,101121.88
2023-05-01T05:48:03.822Z,101119.09
2023-05-01T05:50:30.229Z,101123.44
2023-05-01T05:52:56.590Z,101125.44
2023-05-01T05:55:22.942Z,101126.63
2023-05-01T05:57:49.326Z,101131.00
2023-05-01T06:02:59.776Z,101128.28
2023-05-01T06:05:26.293Z,101131.84
2023-05-01T06:07:52.694Z,101127.88
2023-05-01T06:10:20.019Z,101127.91
2023-05-01T06:13:02.735Z,101133.78
2023-05-01T06:18:19.756Z,101140.31
2023-05-01T06:20:48.384Z,101140.47
2023-05-01T06:23:15.072Z,101138.56
2023-05-01T06:25:41.718Z,101142.16
2023-05-01T06:28:08.326Z,101145.13
2023-05-01T06:33:19.621Z,101154.47
2023-05-01T06:35:46.153Z,101151.13
2023-05-01T06:38:13.645Z,101152.78
2023-05-01T06:40:40.408Z,101150.09
2023-05-01T06:43:07.087Z,101151.88
2023-05-01T06:48:18.127Z,101149.09
2023-05-01T06:50:44.512Z,101149.28
2023-05-01T06:53:10.885Z,101149.44
2023-05-01T06:55:37.225Z,101142.72
2023-05-01T06:58:12.614Z,101145.22
2023-05-01T07:03:34.608Z,101135.56
2023-05-01T07:06:01.168Z,101137.50
2023-05-01T07:08:27.658Z,101139.91
2023-05-01T07:10:55.078Z,101136.03
2023-05-01T07:13:21.566Z,101139.69
2023-05-01T07:18:33.130Z,101132.97
2023-05-01T07:20:59.564Z,101136.59
2023-05-01T07:23:26.900Z,101122.41
2023-05-01T07:25:53.380Z,101130.75
2023-05-01T07:28:19.819Z,101134.34
2023-05-01T07:30:46.290Z,101130.66
2023-05-01T07:33:13.733Z,101133.31
2023-05-01T07:35:40.367Z,101129.41
2023-05-01T07:38:08.709Z,101118.28
2023-05-01T07:40:35.229Z,101123.81
2023-05-01T07:43:04.418Z,101136.25
2023-05-01T07:45:33.516Z,101124.16
2023-05-01T07:47:59.907Z,101126.72
2023-05-01T07:50:26.401Z,101121.00
2023-05-01T07:52:52.863Z,101122.81
2023-05-01T07:55:19.354Z,101117.88
2023-05-01T07:57:47.657Z,101117.88
2023-05-01T08:00:14.910Z,101112.88
2023-05-01T08:02:41.626Z,101119.69
2023-05-01T08:05:09.094Z,101122.25
2023-05-01T08:07:36.334Z,101126.69
2023-05-01T08:10:04.901Z,101129.06
2023-05-01T08:12:31.450Z,101122.75
2023-05-01T08:14:57.848Z,101122.53
2023-05-01T08:17:24.272Z,101121.91
2023-05-01T08:19:50.688Z,101121.28
2023-05-01T08:22:17.088Z,101131.66
2023-05-01T08:24:43.456Z,101123.44
2023-05-01T08:27:09.806Z,101127.81
2023-05-01T08:29:36.372Z,101117.94
2023-05-01T08:32:02.798Z,101128.47
2023-05-01T08:34:29.234Z,101123.84
2023-05-01T08:36:55.602Z,101128.72
2023-05-01T08:39:21.929Z,101113.97
2023-05-01T08:41:48.282Z,101121.88
2023-05-01T08:44:15.497Z,101121.06
2023-05-01T08:46:41.883Z,101120.66
2023-05-01T08:51:52.253Z,101109.75
2023-05-01T08:54:18.609Z,101106.97
2023-05-01T08:56:45.403Z,101113.69
2023-05-01T08:59:11.810Z,101114.50
2023-05-01T09:01:38.223Z,101116.59
2023-05-01T09:06:58.648Z,101114.09
2023-05-01T09:09:25.000Z,101117.53
2023-05-01T09:11:51.355Z,101112.47
2023-05-01T09:14:18.585Z,101112.72
2023-05-01T09:16:44.937Z,101101.66
2023-05-01T09:21:55.218Z,101101.19
2023-05-01T09:24:21.568Z,101101.91
2023-05-01T09:26:47.916Z,101099.69
2023-05-01T09:29:14.285Z,101087.50
2023-05-01T09:31:40.690Z,101094.31
2023-05-01T09:36:50.770Z,101088.50
2023-05-01T09:39:18.130Z,101084.59
2023-05-01T09:41:46.406Z,101086.34
2023-05-01T09:44:14.646Z,101079.53
2023-05-01T09:46:41.062Z,101075.31
2023-05-01T09:51:51.270Z,101066.31
2023-05-01T09:54:18.475Z,101067.56
2023-05-01T09:56:44.812Z,101069.13
2023-05-01T09:59:11.173Z,101065.72
2023-05-01T10:01:37.602Z,101059.34
2023-05-01T10:06:58.019Z,101053.34
2023-05-01T10:09:24.357Z,101056.31
2023-05-01T10:11:50.671Z,101063.50
2023-05-01T10:14:16.989Z,101054.72
2023-05-01T10:16:43.451Z,101052.38
2023-05-01T10:21:53.800Z,101042.81
2023-05-01T10:24:20.158Z,101046.22
2023-05-01T10:26:46.498Z,101043.09
2023-05-01T10:29:12.978Z,101040.75
2023-05-01T10:31:41.467Z,101038.84
2023-05-01T10:36:52.488Z,101025.28
2023-05-01T10:39:18.883Z,101021.22
2023-05-01T10:41:45.228Z,101023.88
2023-05-01T10:44:11.568Z,101020.81
2023-05-01T10:46:37.981Z,101015.34
2023-05-01T10:51:48.521Z,101017.03
2023-05-01T10:54:14.833Z,101015.50
2023-05-01T10:56:41.177Z,101010.78
2023-05-01T10:59:07.517Z,101010.72
2023-05-01T11:01:33.971Z,101011.88
2023-05-01T11:06:44.458Z,100999.78
2023-05-01T11:09:10.853Z,100999.00
2023-05-01T11:11:37.201Z,100998.16
2023-05-01T11:14:03.580Z,100989.38
2023-05-01T11:16:29.980Z,100996.09
2023-05-01T11:18:56.323Z,100983.72
2023-05-01T11:21:22.666Z,100976.72
2023-05-01T11:23:49.009Z,100977.09
2023-05-01T11:26:15.387Z,100972.34
2023-05-01T11:28:42.825Z,100971.56
2023-05-01T11:31:09.195Z,100964.41
2023-05-01T11:33:35.571Z,100966.44
2023-05-01T11:36:01.924Z,100962.09
2023-05-01T11:38:28.285Z,100964.44
2023-05-01T11:40:54.616Z,100962.84
2023-05-01T11:43:20.946Z,100960.41
2023-05-01T11:45:47.283Z,100955.28
2023-05-01T11:48:13.672Z,100952.16
2023-05-01T11:50:40.072Z,100950.59
2023-05-01T11:53:06.429Z,100943.81
2023-05-01T11:55:32.781Z,100942.25
2023-05-01T11:57:59.131Z,100941.03
2023-05-01T12:00:25.492Z,100940.66
2023-05-01T12:02:51.881Z,100939.88
2023-05-01T12:05:18.245Z,100941.41
2023-05-01T12:07:44.585Z,100937.81
2023-05-01T12:10:10.936Z,100933.47
2023-05-01T12:12:37.277Z,100927.06
2023-05-01T12:15:03.629Z,100934.28
2023-05-01T12:17:30.264Z,100931.13
2023-05-01T12:19:56.716Z,100921.22
2023-05-01T12:25:07.167Z,100918.06
2023-05-01T12:27:33.505Z,100914.47
2023-05-01T12:29:59.855Z,100900.13
2023-05-01T12:32:26.220Z,100909.63
2023-05-01T12:34:52.601Z,100907.25
2023-05-01T12:40:03.020Z,100907.25
2023-05-01T12:42:29.378Z,100899.31
2023-05-01T12:44:55.721Z,100901.31
2023-05-01T12:47:22.118Z,100889.44
2023-05-01T12:49:48.461Z,100895.38
2023-05-01T12:54:58.943Z,100884.28
2023-05-01T12:57:25.400Z,100881.88
2023-05-01T12:59:51.748Z,100875.13
2023-05-01T13:02:18.265Z,100875.16
2023-05-01T13:04:44.825Z,100873.53
2023-05-01T13:10:05.172Z,100863.66
2023-05-01T13:12:31.512Z,100858.06
2023-05-01T13:14:57.873Z,100859.22
2023-05-01T13:17:24.242Z,100855.97
2023-05-01T13:19:50.610Z,100851.19
2023-05-01T13:25:01.111Z,100842.81
2023-05-01T13:27:27.463Z,100834.19
2023-05-01T13:29:53.944Z,100839.34
2023-05-01T13:32:20.328Z,100838.16
2023-05-01T13:34:46.639Z,100832.97
2023-05-01T13:40:07.080Z,100830.22
2023-05-01T13:42:33.448Z,100832.97
2023-05-01T13:44:59.847Z,100829.34
2023-05-01T13:47:26.304Z,100825.34
2023-05-01T13:49:52.756Z,100823.38
2023-05-01T13:55:05.562Z,100813.53
2023-05-01T13:57:32.275Z,100817.13
2023-05-01T13:59:58.623Z,100809.19
2023-05-01T14:02:27.838Z,100811.56
2023-05-01T14:04:54.279Z,100802.34
2023-05-01T14:10:04.656Z,100806.41
2023-05-01T14:12:32.986Z,100801.66
2023-05-01T14:14:59.666Z,100798.88
2023-05-01T14:17:26.269Z,100801.66
2023-05-01T14:19:52.635Z,100794.91
2023-05-01T14:25:02.918Z,100783.34
2023-05-01T14:27:29.267Z,100784.94
2023-05-01T14:29:55.638Z,100779.00
2023-05-01T14:32:22.013Z,100777.84
2023-05-01T14:34:48.359Z,100773.44
2023-05-01T14:40:08.631Z,100769.88
2023-05-01T14:42:34.970Z,100771.44
2023-05-01T14:45:01.372Z,100767.47
2023-05-01T14:47:27.898Z,100761.50
2023-05-01T14:49:54.355Z,100774.22
2023-05-01T14:52:20.914Z,100761.91
2023-05-01T14:54:48.287Z,100756.38
2023-05-01T14:57:14.684Z,100762.31
2023-05-01T14:59:41.051Z,100757.94
2023-05-01T15:02:07.495Z,100752.38
2023-05-01T15:04:34.033Z,100750.44
2023-05-01T15:07:00.543Z,100752.38
2023-05-01T15:09:26.877Z,100746.44
2023-05-01T15:11:53.197Z,100744.47
2023-05-01T15:14:19.565Z,100736.53
2023-05-01T15:16:46.071Z,100745.59
2023-05-01T15:19:12.545Z,100734.13
2023-05-01T15:21:38.875Z,100725.41
2023-05-01T15:24:05.239Z,100732.53
2023-05-01T15:26:31.568Z,100720.22
2023-05-01T15:28:57.944Z,100719.41
2023-05-01T15:31:24.365Z,100718.97
2023-05-01T15:33:50.726Z,100720.22
2023-05-01T15:36:17.115Z,100705.91
2023-05-01T15:38:43.456Z,100714.66
2023-05-01T15:41:09.818Z,100705.56
2023-05-01T15:43:36.171Z,100713.47
2023-05-01T15:46:02.898Z,100713.81
2023-05-01T15:48:29.332Z,100713.03
2023-05-01T15:50:55.715Z,100719.38
2023-05-01T15:53:22.071Z,100721.00
2023-05-01T15:55:48.421Z,100716.25
2023-05-01T15:58:14.731Z,100713.06
2023-05-01T16:00:41.095Z,100714.19
2023-05-01T16:03:07.539Z,100706.25
2023-05-01T16:05:33.960Z,100704.28
2023-05-01T16:08:00.364Z,100717.75
2023-05-01T16:13:10.713Z,100706.25
2023-05-01T16:15:37.063Z,100703.84
2023-05-01T16:18:03.493Z,100694.34
2023-05-01T16:20:29.897Z,100688.00
2023-05-01T16:22:56.227Z,100695.63
2023-05-01T16:28:06.607Z,100690.44
2023-05-01T16:30:33.086Z,100681.72
2023-05-01T16:33:00.501Z,100681.31
2023-05-01T16:35:26.945Z,100681.31
2023-05-01T16:37:53.390Z,100680.16
2023-05-01T16:43:06.529Z,100676.56
2023-05-01T16:45:33.052Z,100678.13
2023-05-01T16:47:59.562Z,100673.00
2023-05-01T16:50:26.098Z,100667.44
2023-05-01T16:52:52.589Z,100674.56
2023-05-01T16:58:03.746Z,100667.81
2023-05-01T17:00:30.104Z,100669.00
2023-05-01T17:02:56.548Z,100666.22
2023-05-01T17:05:22.990Z,100671.38
2023-05-01T17:07:49.321Z,100671.00
2023-05-01T17:13:00.435Z,100668.59
2023-05-01T17:15:26.795Z,100668.22
2023-05-01T17:17:53.189Z,100663.44
2023-05-01T17:20:19.542Z,100668.59
2023-05-01T17:22:45.885Z,100661.06
2023-05-01T17:27:56.326Z,100655.88
2023-05-01T17:30:22.704Z,100662.25
2023-05-01T17:32:49.501Z,100657.47
2023-05-01T17:35:16.037Z,100659.47
2023-05-01T17:37:42.443Z,100653.09
2023-05-01T17:42:52.597Z,100665.44
2023-05-01T17:45:18.923Z,100664.66
2023-05-01T17:47:48.047Z,100661.88
2023-05-01T17:50:14.418Z,100667.44
2023-05-01T17:52:40.750Z,100659.47
2023-05-01T17:55:07.075Z,100660.25
2023-05-01T17:57:33.391Z,100659.84
2023-05-01T18:00:00.104Z,100661.81
2023-05-01T18:02:26.817Z,100665.81
2023-05-01T18:04:53.200Z,100667.38
2023-05-01T18:07:19.562Z,100663.41
2023-05-01T18:09:48.685Z,100662.59
2023-05-01T18:12:15.055Z,100662.19
2023-05-01T18:14:41.384Z,100665.38
2023-05-01T18:17:07.863Z,100666.97
2023-05-01T18:19:34.352Z,100662.59
2023-05-01T18:22:03.466Z,100666.56
2023-05-01T18:24:29.797Z,100666.56
2023-05-01T18:26:56.156Z,100663.41
2023-05-01T18:29:22.474Z,100663.00
2023-05-01T18:31:48.898Z,100666.56
2023-05-01T18:34:15.304Z,100662.59
2023-05-01T18:36:41.676Z,100664.56
2023-05-01T18:39:08.026Z,100663.38
2023-05-01T18:41:34.350Z,100662.19
2023-05-01T18:44:00.656Z,100670.56
2023-05-01T18:46:27.027Z,100663.00
2023-05-01T18:48:56.165Z,100670.94
2023-05-01T18:51:25.277Z,100663.38
2023-05-01T18:53:51.604Z,100666.94
2023-05-01T18:56:17.918Z,100664.16
2023-05-01T18:58:44.297Z,100663.78
2023-05-01T19:01:13.440Z,100661.00
2023-05-01T19:03:42.555Z,100666.56
2023-05-01T19:06:08.904Z,100668.16
2023-05-01T19:08:38.063Z,100664.56
2023-05-01T19:11:04.399Z,100665.38
2023-05-01T19:16:14.429Z,100644.28
2023-05-01T19:18:40.781Z,100637.16
2023-05-01T19:21:07.253Z,100639.91
2023-05-01T19:23:33.606Z,100647.88
2023-05-01T19:25:59.925Z,100648.66
2023-05-01T19:31:15.849Z,100631.56
2023-05-01T19:33:42.214Z,100636.31
2023-05-01T19:36:08.560Z,100645.47
2023-05-01T19:38:34.943Z,100635.91
2023-05-01T19:41:04.109Z,100642.31
2023-05-01T19:46:14.239Z,100639.09
2023-05-01T19:48:40.617Z,100639.53
2023-05-01T19:51:06.947Z,100632.31
2023-05-01T19:53:33.313Z,100629.09
2023-05-01T19:55:59.697Z,100627.91
2023-05-01T20:01:09.926Z,100626.34
2023-05-01T20:03:36.294Z,100628.78
2023-05-01T20:06:02.681Z,100628.81
2023-05-01T20:08:29.023Z,100625.63
2023-05-01T20:10:55.366Z,100620.44
2023-05-01T20:16:05.608Z,100614.09
2023-05-01T20:18:31.975Z,100621.66
2023-05-01T20:20:58.320Z,100620.06
2023-05-01T20:23:24.640Z,100617.69
2023-05-01T20:25:50.986Z,100614.13
2023-05-01T20:31:01.338Z,100609.75
2023-05-01T20:33:27.694Z,100618.47
2023-05-01T20:35:54.054Z,100606.97
2023-05-01T20:38:21.259Z,100617.72
2023-05-01T20:40:47.626Z,100618.91
2023-05-01T20:45:57.873Z,100610.13
2023-05-01T20:48:24.216Z,100609.31
2023-05-01T20:50:50.744Z,100612.13
2023-05-01T20:53:17.121Z,100604.56
2023-05-01T20:55:43.577Z,100608.97
2023-05-01T21:00:54.671Z,100609.75
2023-05-01T21:03:23.066Z,100614.94
2023-05-01T21:05:49.600Z,100616.91
2023-05-01T21:08:16.076Z,100617.28
2023-05-01T21:10:43.500Z,100622.81
2023-05-01T21:13:10.770Z,100627.25
2023-05-01T21:15:39.096Z,100626.91
2023-05-01T21:18:07.440Z,100632.47
2023-05-01T21:20:33.883Z,100634.88
2023-05-01T21:23:00.320Z,100638.03
2023-05-01T21:25:26.665Z,100630.09
2023-05-01T21:27:53.069Z,100632.88
2023-05-01T21:30:21.327Z,100629.28
2023-05-01T21:32:47.723Z,100628.50
2023-05-01T21:35:17.376Z,100628.50
2023-05-01T21:37:45.052Z,100626.94
2023-05-01T21:40:11.422Z,100636.47
2023-05-01T21:42:37.784Z,100625.72
2023-05-01T21:45:04.155Z,100633.69
2023-05-01T21:47:30.520Z,100622.94
2023-05-01T21:49:57.200Z,100619.78
2023-05-01T21:52:23.691Z,100618.56
2023-05-01T21:54:50.028Z,100615.78
2023-05-01T21:57:17.250Z,100610.63
2023-05-01T21:59:43.609Z,100620.56
2023-05-01T22:02:09.910Z,100611.06
2023-05-01T22:04:36.433Z,100611.06
2023-05-01T22:07:03.685Z,100612.63
2023-05-01T22:09:30.056Z,100620.19
2023-05-01T22:11:56.396Z,100611.06
2023-05-01T22:14:22.717Z,100608.25
2023-05-01T22:16:49.064Z,100602.66
2023-05-01T22:19:15.444Z,100590.34
2023-05-01T22:21:41.788Z,100602.25
2023-05-01T22:24:08.148Z,100597.91
2023-05-01T22:26:34.476Z,100594.72
2023-05-01T22:29:00.831Z,100585.94
2023-05-01T22:34:11.292Z,100588.31
2023-05-01T22:36:37.648Z,100586.75
2023-05-01T22:39:04.014Z,100591.09
2023-05-01T22:41:30.380Z,100587.50
2023-05-01T22:43:56.746Z,100584.72
2023-05-01T22:49:06.851Z,100582.75
2023-05-01T22:51:33.185Z,100578.00
2023-05-01T22:53:59.520Z,100576.38
2023-05-01T22:56:25.872Z,100580.75
2023-05-01T22:58:52.213Z,100582.72
2023-05-01T23:04:02.723Z,100578.38
2023-05-01T23:06:29.199Z,100575.97
2023-05-01T23:08:55.566Z,100564.84
2023-05-01T23:11:21.900Z,100562.06
2023-05-01T23:13:48.262Z,100561.28
2023-05-01T23:18:59.519Z,100557.69
2023-05-01T23:21:25.874Z,100561.66
2023-05-01T23:23:52.228Z,100559.28
2023-05-01T23:26:19.419Z,100554.50
2023-05-01T23:28:45.749Z,100550.13
2023-05-01T23:33:57.089Z,100546.16
2023-05-01T23:36:23.430Z,100543.38
2023-05-01T23:38:49.863Z,100544.19
2023-05-01T23:41:16.224Z,100540.59
2023-05-01T23:43:42.578Z,100552.91
2023-05-01T23:48:52.698Z,100538.59
2023-05-01T23:51:19.069Z,100536.22
2023-05-01T23:53:45.402Z,100540.56
2023-05-01T23:56:11.747Z,100531.84
2023-05-01T23:58:38.091Z,100521.94
